createdAt,value
2022-11-27T00:01:31.532Z,101455.72
2022-11-27T00:06:30.080Z,101447.78
2022-11-27T00:11:28.911Z,101424.25
2022-11-27T00:16:26.043Z,101422.50
2022-11-27T00:21:26.934Z,101411.94
2022-11-27T00:26:24.127Z,101404.13
2022-11-27T00:31:28.453Z,101405.00
2022-11-27T00:36:26.193Z,101399.09
2022-11-27T00:41:25.534Z,101400.09
2022-11-27T00:46:28.401Z,101399.50
2022-11-27T00:51:26.890Z,101395.22
2022-11-27T00:56:29.808Z,101406.69
2022-11-27T01:01:44.759Z,101399.00
2022-11-27T01:06:42.021Z,101392.38
2022-11-27T01:11:39.818Z,101377.81
2022-11-27T01:16:42.609Z,101378.47
2022-11-27T01:21:39.757Z,101371.13
2022-11-27T01:26:36.086Z,101373.00
2022-11-27T01:31:33.918Z,101365.31
2022-11-27T01:36:30.689Z,101380.16
2022-11-27T01:41:30.469Z,101385.63
2022-11-27T01:46:40.866Z,101375.41
2022-11-27T01:52:05.469Z,101369.47
2022-11-27T01:57:07.780Z,101367.97
2022-11-27T02:02:04.266Z,101356.84
2022-11-27T02:07:01.033Z,101348.56
2022-11-27T02:12:24.774Z,101345.00
2022-11-27T02:17:46.859Z,101330.31
2022-11-27T02:23:19.538Z,101321.59
2022-11-27T02:28:53.772Z,101319.59
2022-11-27T02:33:55.804Z,101315.47
2022-11-27T02:38:59.493Z,101312.00
2022-11-27T02:43:58.353Z,101305.88
2022-11-27T02:49:06.518Z,101299.09
2022-11-27T02:54:06.625Z,101291.31
2022-11-27T02:59:06.549Z,101294.91
2022-11-27T03:04:08.670Z,101288.81
2022-11-27T03:09:13.533Z,101286.16
2022-11-27T03:14:10.620Z,101279.41
2022-11-27T03:19:17.338Z,101280.47
2022-11-27T03:24:13.832Z,101281.47
2022-11-27T03:29:14.954Z,101265.81
2022-11-27T03:34:12.058Z,101261.56
2022-11-27T03:39:09.449Z,101261.44
2022-11-27T03:44:38.554Z,101261.38
2022-11-27T03:49:38.473Z,101241.22
2022-11-27T03:54:53.470Z,101240.22
2022-11-27T03:59:54.625Z,101233.28
2022-11-27T04:04:50.944Z,101230.66
2022-11-27T04:09:47.250Z,101229.66
2022-11-27T04:14:43.577Z,101236.00
2022-11-27T04:19:39.942Z,101232.38
2022-11-27T04:24:36.315Z,101218.56
2022-11-27T04:29:32.638Z,101232.38
2022-11-27T04:34:28.999Z,101228.88
2022-11-27T04:39:25.337Z,101212.44
2022-11-27T04:44:22.843Z,101219.16
2022-11-27T04:49:19.187Z,101227.13
2022-11-27T04:54:15.535Z,101214.09
2022-11-27T04:59:11.833Z,101211.56
2022-11-27T05:04:08.168Z,101202.69
2022-11-27T05:09:04.752Z,101185.22
2022-11-27T05:14:21.730Z,101185.19
2022-11-27T05:19:20.471Z,101165.88
2022-11-27T05:24:18.664Z,101168.66
2022-11-27T05:29:15.904Z,101174.63
2022-11-27T05:34:12.694Z,101163.25
2022-11-27T05:39:10.320Z,101156.34
2022-11-27T05:44:07.068Z,101152.84
2022-11-27T05:49:03.405Z,101150.28
2022-11-27T05:53:59.727Z,101146.09
2022-11-27T05:58:56.118Z,101141.59
2022-11-27T06:03:52.521Z,101127.56
2022-11-27T06:08:48.906Z,101129.47
2022-11-27T06:13:46.786Z,101113.72
2022-11-27T06:18:44.221Z,101117.22
2022-11-27T06:23:42.090Z,101114.47
2022-11-27T06:28:38.542Z,101104.03
2022-11-27T06:33:35.071Z,101096.19
2022-11-27T06:38:33.224Z,101089.19
2022-11-27T06:43:29.529Z,101093.47
2022-11-27T06:48:26.256Z,101100.34
2022-11-27T06:53:22.613Z,101089.91
2022-11-27T06:58:18.928Z,101081.84
2022-11-27T07:03:15.352Z,101084.19
2022-11-27T07:08:11.754Z,101081.56
2022-11-27T07:13:08.109Z,101089.28
2022-11-27T07:18:04.488Z,101087.53
2022-11-27T07:23:01.125Z,101082.81
2022-11-27T07:27:57.603Z,101068.66
2022-11-27T07:32:53.899Z,101066.63
2022-11-27T07:37:50.252Z,101057.72
2022-11-27T07:42:46.592Z,101057.41
2022-11-27T07:47:42.942Z,101056.28
2022-11-27T07:52:41.923Z,101055.13
2022-11-27T07:57:38.695Z,101060.06
2022-11-27T08:02:35.162Z,101064.81
2022-11-27T08:07:31.511Z,101056.41
2022-11-27T08:12:27.892Z,101050.75
2022-11-27T08:17:24.242Z,101048.47
2022-11-27T08:22:20.707Z,101042.66
2022-11-27T08:27:17.384Z,101032.38
2022-11-27T08:32:13.797Z,101024.13
2022-11-27T08:37:10.114Z,101013.09
2022-11-27T08:42:06.473Z,101015.13
2022-11-27T08:47:02.806Z,101011.06
2022-11-27T08:51:59.130Z,101015.69
2022-11-27T08:56:55.444Z,101003.06
2022-11-27T09:01:51.824Z,100997.72
2022-11-27T09:06:54.002Z,101000.72
2022-11-27T09:11:56.028Z,101006.00
2022-11-27T09:16:53.735Z,100990.69
2022-11-27T09:21:50.854Z,100988.34
2022-11-27T09:26:47.461Z,100987.97
2022-11-27T09:31:43.871Z,100983.75
2022-11-27T09:36:40.367Z,100970.94
2022-11-27T09:41:57.668Z,100969.38
2022-11-27T09:46:56.391Z,100962.31
2022-11-27T09:51:58.715Z,100965.19
2022-11-27T09:56:56.317Z,100963.72
2022-11-27T10:01:52.794Z,100943.13
2022-11-27T10:07:08.375Z,100943.69
2022-11-27T10:12:45.234Z,100941.41
2022-11-27T10:18:04.293Z,100929.19
2022-11-27T10:23:20.790Z,100922.34
2022-11-27T10:28:31.346Z,100916.56
2022-11-27T10:33:37.050Z,100912.84
2022-11-27T10:38:38.069Z,100913.84
2022-11-27T10:43:35.494Z,100908.41
2022-11-27T10:48:33.256Z,100901.03
2022-11-27T10:53:35.348Z,100895.38
2022-11-27T10:58:58.001Z,100917.19
2022-11-27T11:04:31.378Z,100906.28
2022-11-27T11:09:27.306Z,100897.59
2022-11-27T11:14:26.380Z,100899.94
2022-11-27T11:19:34.064Z,100892.50
2022-11-27T11:24:32.496Z,100884.94
2022-11-27T11:29:53.014Z,100880.28
2022-11-27T11:34:59.196Z,100873.75
2022-11-27T11:40:03.743Z,100866.53
2022-11-27T11:45:13.209Z,100854.63
2022-11-27T11:50:13.670Z,100849.88
2022-11-27T11:55:27.167Z,100842.47
2022-11-27T12:00:31.508Z,100837.63
2022-11-27T12:05:36.842Z,100820.69
2022-11-27T12:10:49.119Z,100821.25
2022-11-27T12:16:03.383Z,100813.63
2022-11-27T12:21:16.179Z,100806.59
2022-11-27T12:26:34.055Z,100796.09
2022-11-27T12:31:33.139Z,100790.78
2022-11-27T12:36:58.239Z,100791.66
2022-11-27T12:42:21.944Z,100775.63
2022-11-27T12:47:28.843Z,100771.06
2022-11-27T12:52:34.444Z,100766.09
2022-11-27T12:57:40.522Z,100757.78
2022-11-27T13:02:43.767Z,100749.09
2022-11-27T13:07:51.313Z,100751.81
2022-11-27T13:12:55.124Z,100727.50
2022-11-27T13:18:00.516Z,100719.94
2022-11-27T13:22:56.959Z,100711.41
2022-11-27T13:27:55.179Z,100694.97
2022-11-27T13:33:02.865Z,100691.97
2022-11-27T13:38:08.232Z,100679.94
2022-11-27T13:43:16.848Z,100679.41
2022-11-27T13:48:27.665Z,100670.38
2022-11-27T13:53:36.246Z,100648.06
2022-11-27T13:58:35.905Z,100641.47
2022-11-27T14:03:36.463Z,100632.13
2022-11-27T14:08:35.589Z,100616.59
2022-11-27T14:13:36.919Z,100616.59
2022-11-27T14:18:34.264Z,100602.91
2022-11-27T14:23:36.837Z,100600.66
2022-11-27T14:28:36.735Z,100596.41
2022-11-27T14:33:53.515Z,100588.75
2022-11-27T14:38:51.435Z,100588.97
2022-11-27T14:43:48.413Z,100587.25
2022-11-27T14:48:44.765Z,100577.78
2022-11-27T14:53:41.920Z,100561.38
2022-11-27T14:58:40.695Z,100557.94
2022-11-27T15:03:37.349Z,100547.56
2022-11-27T15:08:36.007Z,100537.34
2022-11-27T15:13:34.969Z,100535.56
2022-11-27T15:18:35.055Z,100541.16
2022-11-27T15:23:34.177Z,100534.16
2022-11-27T15:28:36.264Z,100542.28
2022-11-27T15:33:33.949Z,100538.91
2022-11-27T15:38:31.415Z,100525.75
2022-11-27T15:43:27.726Z,100512.31
2022-11-27T15:48:24.094Z,100520.38
2022-11-27T15:53:20.499Z,100510.91
2022-11-27T15:58:17.052Z,100511.13
2022-11-27T16:03:14.185Z,100505.91
2022-11-27T16:08:13.931Z,100490.22
2022-11-27T16:13:10.459Z,100480.47
2022-11-27T16:18:07.160Z,100488.63
2022-11-27T16:23:03.484Z,100465.94
2022-11-27T16:28:03.123Z,100492.97
2022-11-27T16:32:59.807Z,100490.03
2022-11-27T16:37:56.145Z,100476.69
2022-11-27T16:42:52.662Z,100461.94
2022-11-27T16:47:49.126Z,100465.31
2022-11-27T16:52:48.939Z,100465.31
2022-11-27T16:57:49.234Z,100454.19
2022-11-27T17:02:45.674Z,100454.38
2022-11-27T17:07:42.548Z,100439.84
2022-11-27T17:12:39.018Z,100430.19
2022-11-27T17:17:39.935Z,100436.25
2022-11-27T17:22:36.547Z,100436.91
2022-11-27T17:27:34.120Z,100438.91
2022-11-27T17:32:30.451Z,100440.31
2022-11-27T17:37:26.902Z,100423.22
2022-11-27T17:42:23.218Z,100414.94
2022-11-27T17:47:19.663Z,100419.47
2022-11-27T17:52:15.992Z,100415.97
2022-11-27T17:57:12.412Z,100417.94
2022-11-27T18:02:11.644Z,100412.28
2022-11-27T18:07:08.316Z,100415.16
2022-11-27T18:12:06.525Z,100403.69
2022-11-27T18:17:05.022Z,100395.84
2022-11-27T18:22:01.399Z,100399.44
2022-11-27T18:27:08.123Z,100392.59
2022-11-27T18:32:05.966Z,100384.88
2022-11-27T18:37:03.116Z,100379.41
2022-11-27T18:41:59.608Z,100380.56
2022-11-27T18:46:55.955Z,100371.28
2022-11-27T18:51:53.844Z,100368.47
2022-11-27T18:56:50.170Z,100370.72
2022-11-27T19:01:46.707Z,100364.16
2022-11-27T19:06:43.797Z,100367.19
2022-11-27T19:11:40.889Z,100363.25
2022-11-27T19:16:43.711Z,100351.44
2022-11-27T19:21:40.575Z,100347.81
2022-11-27T19:26:37.506Z,100351.81
2022-11-27T19:31:36.761Z,100346.91
2022-11-27T19:36:34.658Z,100338.41
2022-11-27T19:41:32.481Z,100328.63
2022-11-27T19:46:30.855Z,100316.75
2022-11-27T19:51:28.756Z,100320.13
2022-11-27T19:56:27.718Z,100308.66
2022-11-27T20:01:24.083Z,100291.66
2022-11-27T20:06:22.377Z,100290.34
2022-11-27T20:11:22.176Z,100291.00
2022-11-27T20:16:21.463Z,100287.72
2022-11-27T20:21:20.254Z,100287.72
2022-11-27T20:26:20.221Z,100274.84
2022-11-27T20:31:39.325Z,100272.50
2022-11-27T20:36:39.117Z,100279.22
2022-11-27T20:41:35.460Z,100270.03
2022-11-27T20:46:32.817Z,100259.78
2022-11-27T20:51:33.733Z,100242.69
2022-11-27T20:56:31.291Z,100244.69
2022-11-27T21:01:32.968Z,100225.44
2022-11-27T21:06:31.818Z,100225.81
2022-11-27T21:11:30.251Z,100215.25
2022-11-27T21:16:28.754Z,100195.56
2022-11-27T21:21:25.813Z,100145.09
2022-11-27T21:26:22.968Z,100154.34
2022-11-27T21:31:23.550Z,100113.03
2022-11-27T21:36:22.170Z,100123.72
2022-11-27T21:41:19.875Z,100127.38
2022-11-27T21:46:19.390Z,100127.56
2022-11-27T21:51:16.028Z,100125.13
2022-11-27T21:56:15.921Z,100122.47
2022-11-27T22:01:18.177Z,100120.50
2022-11-27T22:06:16.229Z,100125.50
2022-11-27T22:11:15.592Z,100096.09
2022-11-27T22:16:18.200Z,100104.22
2022-11-27T22:21:16.073Z,100095.38
2022-11-27T22:26:15.924Z,100095.91
2022-11-27T22:31:15.700Z,100089.97
2022-11-27T22:36:15.082Z,100061.22
2022-11-27T22:41:11.978Z,100068.28
2022-11-27T22:46:11.451Z,100066.97
2022-11-27T22:51:08.437Z,100086.63
2022-11-27T22:56:11.634Z,100083.25
2022-11-27T23:01:13.081Z,100097.41
2022-11-27T23:06:14.581Z,100086.63
2022-11-27T23:11:15.744Z,100069.31
2022-11-27T23:16:12.277Z,100059.50
2022-11-27T23:21:11.809Z,100050.44
2022-11-27T23:26:16.119Z,100045.16
2022-11-27T23:31:33.479Z,100046.94
2022-11-27T23:36:31.545Z,100034.53
2022-11-27T23:41:29.020Z,100033.06
2022-11-27T23:46:27.952Z,100037.00
2022-11-27T23:51:27.414Z,100016.63
2022-11-27T23:56:27.048Z,100000.47
